Terminal Aerodrome Forecast
Issued by NWS

Home | Current Version | Previous Version | Text Only | Print | Product List | Glossary Off
Versions: 1 2 3 4 5 6 7 8 9 10 11 12 13 14 15 16 17 18 19 20 21 22 23 24 25 26 27 28 29 30

000
FTUS43 KLOT 041126
TAFORD
TAF
KORD 041126Z 0412/0518 01014G21KT P6SM FEW012 SCT020
      TEMPO 0412/0414 BKN020
     FM041800 01016G24KT P6SM VCSH BKN035
     FM050000 02011G16KT P6SM SCT040=

USA.gov is the U.S. government's official web portal to all federal, state and local government web resources and services.